»·PEaware :: N335AK KSAC-KTUS

N335AK :: KSAC-KTUS

FLIGHT INFORMATION

Flight Status: Arrived
Operator: Privately registered:
United States
More flights under this callsign
Pilot: Gabor H. (24209)
Aircraft: Unknown
(EPIC)
More flights by this aircraft type
Origin: KSAC Sacramento Executive
United States
Destination: KTUS Tucson Intl
United States
More flights between these airports :: More routes between these airports
Route: LIDAT J92 PXR DINGO5
File this flight plan on PilotEdge
Remarks:
Altitude:
(Current/Filed)
33,000ft
Speed:
(Current/Filed)
325kts
Departed: 21-Aug-20 03:09 AM
Arrived: 21-Aug-20 05:28 AM
Distance/Time
Traveled:
642nm/2:19
Distance/Time
To Go:
Arrived

Flight Plot

Page will automatically refresh every two minutes.

Flight plan parsing failed; only flown route is shown


Map Options




Map Legend


Flown Route
Filed Route
Departure Airport
Arrival Airport
Navaid (VOR, NDB)
Fix

Horizontal Profiles

Position Reports

Time Latitude Longitude Heading Altitude Ground
Speed
21-Aug-20 02:48 38.514770 -121.498394 226 23ft 0kts
21-Aug-20 02:49 38.514770 -121.498394 226 23ft 0kts
21-Aug-20 02:50 38.514770 -121.498394 226 23ft 0kts
21-Aug-20 02:51 38.514770 -121.498394 226 23ft 0kts
21-Aug-20 02:52 38.514770 -121.498394 226 23ft 0kts
21-Aug-20 02:53 38.514770 -121.498394 226 23ft 0kts
21-Aug-20 02:54 38.514770 -121.498394 226 23ft 0kts
21-Aug-20 02:55 38.514770 -121.498394 226 23ft 0kts
21-Aug-20 02:56 38.514770 -121.498394 226 23ft 0kts
21-Aug-20 02:57 38.514770 -121.498394 226 23ft 0kts
21-Aug-20 02:58 38.514770 -121.498394 226 23ft 0kts
21-Aug-20 02:59 38.514770 -121.498394 226 23ft 0kts
21-Aug-20 02:59 38.514770 -121.498394 226 23ft 0kts
21-Aug-20 03:01 38.514770 -121.498394 226 23ft 0kts
21-Aug-20 03:02 38.514770 -121.498394 226 23ft 0kts
21-Aug-20 03:02 38.514770 -121.498394 226 23ft 0kts
21-Aug-20 03:04 38.514770 -121.498394 226 23ft 0kts
21-Aug-20 03:04 38.514141 -121.497259 121 23ft 12kts
21-Aug-20 03:05 38.514061 -121.495044 31 24ft 9kts
21-Aug-20 03:06 38.516971 -121.492621 34 25ft 11kts
21-Aug-20 03:07 38.519189 -121.490640 87 25ft 14kts
21-Aug-20 03:08 38.516686 -121.491110 213 25ft 59kts
21-Aug-20 03:09 38.487301 -121.514764 210 2148ft 182kts
21-Aug-20 03:10 38.447623 -121.512355 95 5667ft 187kts
21-Aug-20 03:11 38.438231 -121.446278 108 8969ft 200kts
21-Aug-20 03:12 38.422849 -121.376429 108 12186ft 213kts
21-Aug-20 03:13 38.406414 -121.302397 109 15311ft 225kts
21-Aug-20 03:14 38.388992 -121.224240 109 18200ft 236kts
21-Aug-20 03:15 38.370720 -121.142574 110 20651ft 246kts
21-Aug-20 03:16 38.351563 -121.057273 110 22735ft 255kts
21-Aug-20 03:17 38.331721 -120.969255 110 24502ft 263kts
21-Aug-20 03:18 38.311204 -120.878559 110 26001ft 271kts
21-Aug-20 03:19 38.290047 -120.785426 110 27293ft 277kts
21-Aug-20 03:20 38.268380 -120.690412 110 28406ft 283kts
21-Aug-20 03:21 38.246124 -120.593217 110 29410ft 287kts
21-Aug-20 03:22 38.223734 -120.495846 110 30405ft 287kts
21-Aug-20 03:23 38.201339 -120.398851 110 31399ft 285kts
21-Aug-20 03:24 38.179377 -120.304157 110 32191ft 287kts
21-Aug-20 03:25 38.156543 -120.206086 110 32864ft 291kts
21-Aug-20 03:26 38.132847 -120.104806 110 32984ft 309kts
21-Aug-20 03:27 38.108420 -120.000810 110 32983ft 305kts
21-Aug-20 03:28 38.084015 -119.897341 110 33040ft 307kts
21-Aug-20 03:29 38.059309 -119.793054 110 33124ft 309kts
21-Aug-20 03:30 38.034372 -119.688262 110 33167ft 311kts
21-Aug-20 03:31 38.009241 -119.583130 110 33220ft 312kts
21-Aug-20 03:32 37.983965 -119.477844 110 33283ft 312kts
21-Aug-20 03:33 37.958491 -119.372190 110 33284ft 314kts
21-Aug-20 03:34 37.933477 -119.268916 111 33280ft 315kts
21-Aug-20 03:35 37.907704 -119.162952 111 33280ft 315kts
21-Aug-20 03:36 37.882075 -119.058047 111 33285ft 315kts
21-Aug-20 03:37 37.856056 -118.952039 110 33284ft 315kts
21-Aug-20 03:38 37.830068 -118.846590 109 33284ft 313kts
21-Aug-20 03:39 37.804122 -118.741716 109 33284ft 312kts
21-Aug-20 03:40 37.778138 -118.637170 109 33285ft 311kts
21-Aug-20 03:41 37.752092 -118.532827 109 33272ft 311kts
21-Aug-20 03:42 37.725789 -118.427895 109 33169ft 314kts
21-Aug-20 03:43 37.699838 -118.324808 110 33065ft 315kts
21-Aug-20 03:44 37.673255 -118.219641 110 33045ft 313kts
21-Aug-20 03:45 37.646734 -118.115167 110 33045ft 312kts
21-Aug-20 03:46 37.620180 -118.010994 110 33045ft 311kts
21-Aug-20 03:47 37.593570 -117.907037 110 33046ft 311kts
21-Aug-20 03:48 37.566897 -117.803261 110 33053ft 311kts
21-Aug-20 03:49 37.540260 -117.700051 110 33077ft 310kts
21-Aug-20 03:50 37.513452 -117.596610 110 33088ft 310kts
21-Aug-20 03:51 37.486527 -117.493136 110 33099ft 310kts
21-Aug-20 03:52 37.459571 -117.389956 110 33124ft 310kts
21-Aug-20 03:53 37.431546 -117.289581 128 33125ft 306kts
21-Aug-20 03:54 37.366587 -117.224060 148 33136ft 300kts
21-Aug-20 03:55 37.297528 -117.165355 148 33136ft 300kts
21-Aug-20 03:56 37.228332 -117.106781 148 33136ft 300kts
21-Aug-20 03:57 37.159201 -117.048397 148 33136ft 300kts
21-Aug-20 03:58 37.089756 -116.989882 148 33136ft 299kts
21-Aug-20 03:59 37.020808 -116.931908 147 33135ft 298kts
21-Aug-20 04:00 36.952326 -116.874446 147 33133ft 296kts
21-Aug-20 04:01 36.883389 -116.816666 149 33023ft 299kts
21-Aug-20 04:02 36.814014 -116.758799 149 32945ft 300kts
21-Aug-20 04:03 36.768459 -116.670087 120 32928ft 309kts
21-Aug-20 04:04 36.728823 -116.575067 120 32928ft 308kts
21-Aug-20 04:05 36.689293 -116.480445 120 32928ft 308kts
21-Aug-20 04:06 36.649784 -116.386152 120 32929ft 308kts
21-Aug-20 04:07 36.610708 -116.293157 121 32926ft 307kts
21-Aug-20 04:08 36.571148 -116.199282 121 32926ft 307kts
21-Aug-20 04:09 36.531334 -116.105078 121 32926ft 307kts
21-Aug-20 04:10 36.491631 -116.011407 121 32926ft 307kts
21-Aug-20 04:11 36.451750 -115.917585 121 32926ft 306kts
21-Aug-20 04:12 36.411830 -115.823940 121 32926ft 307kts
21-Aug-20 04:13 36.371877 -115.730483 121 32927ft 307kts
21-Aug-20 04:14 36.331803 -115.637014 121 32920ft 307kts
21-Aug-20 04:15 36.291598 -115.543504 121 32894ft 308kts
21-Aug-20 04:16 36.251240 -115.449903 121 32869ft 308kts
21-Aug-20 04:17 36.210800 -115.356375 121 32863ft 308kts
21-Aug-20 04:18 36.171194 -115.265038 122 32860ft 307kts
21-Aug-20 04:19 36.130646 -115.171791 121 32864ft 306kts
21-Aug-20 04:20 36.090070 -115.078736 121 32867ft 307kts
21-Aug-20 04:21 36.049266 -114.985423 121 32877ft 309kts
21-Aug-20 04:22 36.008219 -114.891810 121 32894ft 311kts
21-Aug-20 04:23 35.962861 -114.800784 125 32898ft 311kts
21-Aug-20 04:24 35.915699 -114.711069 125 32899ft 312kts
21-Aug-20 04:25 35.868194 -114.620958 126 32901ft 312kts
21-Aug-20 04:26 35.820751 -114.531193 126 32902ft 313kts
21-Aug-20 04:27 35.773227 -114.441517 125 32907ft 313kts
21-Aug-20 04:28 35.725524 -114.351728 126 32943ft 313kts
21-Aug-20 04:29 35.678177 -114.262832 126 33004ft 311kts
21-Aug-20 04:30 35.630732 -114.173987 126 33027ft 311kts
21-Aug-20 04:31 35.583138 -114.085091 126 33026ft 312kts
21-Aug-20 04:32 35.535325 -113.996005 126 33027ft 312kts
21-Aug-20 04:33 35.487315 -113.906799 126 33027ft 313kts
21-Aug-20 04:34 35.439239 -113.817709 126 33027ft 313kts
21-Aug-20 04:35 35.391078 -113.728702 126 33028ft 313kts
21-Aug-20 04:36 35.342811 -113.639703 126 33028ft 313kts
21-Aug-20 04:37 35.294606 -113.551066 126 33028ft 313kts
21-Aug-20 04:38 35.246221 -113.462306 126 33028ft 313kts
21-Aug-20 04:39 35.197757 -113.373637 126 33029ft 313kts
21-Aug-20 04:40 35.149653 -113.285838 127 33025ft 313kts
21-Aug-20 04:41 35.101245 -113.197713 127 33065ft 311kts
21-Aug-20 04:42 35.052837 -113.109807 127 33115ft 310kts
21-Aug-20 04:43 35.004654 -113.022529 127 33162ft 310kts
21-Aug-20 04:44 34.956489 -112.935548 127 33163ft 311kts
21-Aug-20 04:45 34.907948 -112.848096 126 33164ft 311kts
21-Aug-20 04:47 34.859688 -112.761329 126 33166ft 312kts
21-Aug-20 04:48 34.810787 -112.673635 126 33166ft 312kts
21-Aug-20 04:49 34.761956 -112.586275 126 33166ft 313kts
21-Aug-20 04:50 34.712939 -112.498883 128 33164ft 313kts
21-Aug-20 04:51 34.637714 -112.454004 163 33166ft 303kts
21-Aug-20 04:52 34.557927 -112.421375 164 33166ft 303kts
21-Aug-20 04:53 34.478211 -112.388980 164 33166ft 303kts
21-Aug-20 04:54 34.398223 -112.356541 164 33166ft 303kts
21-Aug-20 04:55 34.318152 -112.324136 164 33163ft 303kts
21-Aug-20 04:56 34.238104 -112.291799 164 33163ft 302kts
21-Aug-20 04:57 34.158036 -112.259526 164 33046ft 305kts
21-Aug-20 04:58 34.077114 -112.226976 164 32912ft 307kts
21-Aug-20 04:59 33.996332 -112.194541 164 32897ft 305kts
21-Aug-20 05:00 33.915905 -112.162317 164 32897ft 304kts
21-Aug-20 05:01 33.835802 -112.130284 164 32895ft 303kts
21-Aug-20 05:02 33.755544 -112.098254 164 32896ft 303kts
21-Aug-20 05:03 33.673917 -112.065759 164 32198ft 324kts
21-Aug-20 05:03 33.599547 -112.036198 164 30961ft 347kts
21-Aug-20 05:05 33.489797 -111.992668 163 29121ft 363kts
21-Aug-20 05:06 33.391497 -111.965592 176 27504ft 366kts
21-Aug-20 05:06 33.306557 -111.955922 176 26144ft 369kts
21-Aug-20 05:08 33.187135 -111.942480 176 24238ft 371kts
21-Aug-20 05:08 33.101421 -111.932854 176 22871ft 373kts
21-Aug-20 05:09 32.997825 -111.921259 175 21231ft 378kts
21-Aug-20 05:10 32.892030 -111.907784 161 19530ft 385kts
21-Aug-20 05:11 32.804026 -111.840929 142 17853ft 359kts
21-Aug-20 05:12 32.725077 -111.775623 141 16313ft 337kts
21-Aug-20 05:13 32.649613 -111.713334 141 14846ft 327kts
21-Aug-20 05:14 32.574227 -111.651232 140 13383ft 332kts
21-Aug-20 05:15 32.513827 -111.573158 121 11923ft 320kts
21-Aug-20 05:16 32.460963 -111.489432 122 10502ft 309kts
21-Aug-20 05:17 32.410704 -111.409936 123 9162ft 294kts
21-Aug-20 05:18 32.366081 -111.337850 109 8017ft 260kts
21-Aug-20 05:19 32.368723 -111.255157 84 8001ft 256kts
21-Aug-20 05:20 32.329440 -111.189929 139 8000ft 266kts
21-Aug-20 05:21 32.277275 -111.129037 132 6907ft 261kts
21-Aug-20 05:22 32.227524 -111.070404 132 5509ft 230kts
21-Aug-20 05:23 32.188493 -111.024463 133 4466ft 157kts
21-Aug-20 05:24 32.163632 -110.995227 132 3755ft 116kts
21-Aug-20 05:25 32.140558 -110.968101 133 3094ft 116kts
21-Aug-20 05:26 32.120841 -110.944801 135 2584ft 62kts
21-Aug-20 05:27 32.118413 -110.940954 2 2596ft 12kts
21-Aug-20 05:28 32.122123 -110.943934 317 2583ft 16kts
21-Aug-20 05:29 32.125401 -110.946820 40 2571ft 14kts
21-Aug-20 05:30 32.128094 -110.943770 46 2569ft 10kts
21-Aug-20 05:31 32.127449 -110.942329 317 2573ft 0kts
21-Aug-20 05:32 32.127456 -110.942336 319 2572ft 0kts
21-Aug-20 05:33 32.127456 -110.942336 319 2572ft 0kts
21-Aug-20 05:34 32.127456 -110.942336 319 2572ft 0kts
21-Aug-20 05:35 32.127456 -110.942336 319 2572ft 0kts

Navigation Log

Ident Type
Flight plan parsing failed, navigation log unavailable